Time;durP1;ratioP1;P1;durP2;ratioP2;P2;SDS_P1;SDS_P2;PMS_P1;PMS_P2;Temp;Humidity;BMP_temperature;BMP_pressure;BME280_temperature;BME280_humidity;BME280_pressure;Samples;Min_cycle;Max_cycle;Signal;HPM_P1;HPM_P2
2021/03/30 00:00:23;;;;;;;15.25;6.32;;;;;;;;;;4940494;29;20039;-72
2021/03/30 00:02:50;;;;;;;11.55;5.47;;;;;;;;;;4940472;29;20082;-73
2021/03/30 00:05:16;;;;;;;10.98;5.10;;;;;;;;;;4930162;28;20028;-72
2021/03/30 00:07:42;;;;;;;14.73;6.70;;;;;;;;;;4937360;29;20062;-73
2021/03/30 00:10:10;;;;;;;9.80;5.35;;;;;;;;;;4928893;28;20388;-72
2021/03/30 00:12:36;;;;;;;12.27;6.22;;;;;;;;;;4937989;29;20062;-72
2021/03/30 00:15:02;;;;;;;10.73;5.85;;;;;;;;;;4947842;28;20134;-72
2021/03/30 00:17:28;;;;;;;18.50;10.55;;;;;;;;;;4948021;28;20085;-72
2021/03/30 00:19:54;;;;;;;28.20;13.85;;;;;;;;;;4945960;28;20019;-72
2021/03/30 00:22:20;;;;;;;23.98;14.38;;;;;;;;;;4939247;29;20447;-73
2021/03/30 00:24:46;;;;;;;20.70;10.23;;;;;;;;;;4948110;28;20073;-73
2021/03/30 00:27:11;;;;;;;16.92;7.50;;;;;;;;;;4947579;28;20027;-73
2021/03/30 00:29:46;;;;;;;14.43;6.60;;;;;;;;;;4949282;28;20146;-73
2021/03/30 00:32:12;;;;;;;15.80;6.32;;;;;;;;;;4947825;29;20491;-73
2021/03/30 00:34:38;;;;;;;13.35;5.97;;;;;;;;;;4949050;28;20117;-73
2021/03/30 00:37:04;;;;;;;11.38;5.40;;;;;;;;;;4944380;28;20031;-73
2021/03/30 00:39:30;;;;;;;16.60;6.95;;;;;;;;;;4928206;29;20031;-73
2021/03/30 00:47:08;;;;;;;13.95;6.57;;;;;;;;;;5652718;22;20434;-73
2021/03/30 00:49:34;;;;;;;15.10;6.72;;;;;;;;;;5032506;28;20040;-73
2021/03/30 00:52:00;;;;;;;11.73;6.78;;;;;;;;;;5034896;28;20026;-73
2021/03/30 00:54:26;;;;;;;15.85;6.25;;;;;;;;;;5039430;28;20029;-74
2021/03/30 00:56:52;;;;;;;11.88;6.47;;;;;;;;;;5034976;28;20043;-73
2021/03/30 00:59:19;;;;;;;14.45;6.47;;;;;;;;;;5028133;28;20065;-73
2021/03/30 01:01:46;;;;;;;14.30;6.28;;;;;;;;;;5027631;28;20465;-73
2021/03/30 01:04:12;;;;;;;17.15;6.63;;;;;;;;;;5035088;28;20032;-72
2021/03/30 01:06:39;;;;;;;11.25;6.07;;;;;;;;;;5050990;28;20035;-73
2021/03/30 01:09:22;;;;;;;13.75;6.43;;;;;;;;;;5053049;28;20293;-73
2021/03/30 01:12:04;;;;;;;11.52;5.68;;;;;;;;;;5053429;28;20055;-73
2021/03/30 01:14:49;;;;;;;16.35;6.28;;;;;;;;;;5055998;28;20013;-73
2021/03/30 01:17:15;;;;;;;13.00;6.80;;;;;;;;;;5045822;28;20783;-73
2021/03/30 01:19:59;;;;;;;10.32;6.50;;;;;;;;;;5047175;28;20047;-73
2021/03/30 01:22:39;;;;;;;19.00;6.30;;;;;;;;;;5039774;28;20101;-73
2021/03/30 01:25:06;;;;;;;15.98;6.60;;;;;;;;;;5045750;28;20107;-73
2021/03/30 01:27:50;;;;;;;16.45;6.72;;;;;;;;;;5033882;28;20057;-73
2021/03/30 01:30:18;;;;;;;15.05;6.82;;;;;;;;;;5018950;28;20029;-73
2021/03/30 01:32:48;;;;;;;12.40;6.75;;;;;;;;;;5033493;28;20381;-73
2021/03/30 01:35:15;;;;;;;11.60;6.75;;;;;;;;;;5036586;28;20474;-73
2021/03/30 01:37:43;;;;;;;17.42;6.78;;;;;;;;;;5033586;28;20100;-73
2021/03/30 01:40:09;;;;;;;16.08;6.30;;;;;;;;;;5031475;28;20081;-72
2021/03/30 01:42:36;;;;;;;14.52;7.32;;;;;;;;;;5030203;28;20021;-73
2021/03/30 01:45:03;;;;;;;15.20;7.85;;;;;;;;;;5030498;28;20035;-73
2021/03/30 01:47:30;;;;;;;11.25;6.50;;;;;;;;;;5031757;28;20063;-73
2021/03/30 01:49:58;;;;;;;18.42;6.97;;;;;;;;;;5025760;28;20028;-73
2021/03/30 01:52:24;;;;;;;14.23;6.57;;;;;;;;;;5024993;28;20041;-73
2021/03/30 01:54:51;;;;;;;14.63;7.13;;;;;;;;;;5026710;28;20025;-73
2021/03/30 01:57:21;;;;;;;12.48;7.25;;;;;;;;;;5026164;28;20056;-73
2021/03/30 01:59:47;;;;;;;11.98;6.55;;;;;;;;;;5025774;28;20076;-73
2021/03/30 02:02:13;;;;;;;12.43;7.32;;;;;;;;;;5027914;28;20552;-73
2021/03/30 02:04:39;;;;;;;12.95;7.03;;;;;;;;;;5026633;28;20025;-73
2021/03/30 02:07:06;;;;;;;17.73;6.75;;;;;;;;;;5028490;28;20075;-73
2021/03/30 02:09:36;;;;;;;14.77;7.50;;;;;;;;;;5022917;28;20033;-73
2021/03/30 02:12:06;;;;;;;13.43;7.18;;;;;;;;;;5028978;28;20091;-72
2021/03/30 02:14:33;;;;;;;13.10;6.70;;;;;;;;;;5024253;28;20541;-73
2021/03/30 02:17:01;;;;;;;17.42;8.10;;;;;;;;;;5027890;28;20105;-73
2021/03/30 02:19:36;;;;;;;15.20;9.35;;;;;;;;;;5028883;28;20390;-73
2021/03/30 02:22:07;;;;;;;18.00;8.88;;;;;;;;;;5021546;28;20037;-73
2021/03/30 02:24:35;;;;;;;17.58;8.02;;;;;;;;;;5026611;28;20029;-73
2021/03/30 02:27:03;;;;;;;17.33;7.93;;;;;;;;;;5025964;28;20060;-73
2021/03/30 02:29:33;;;;;;;15.20;8.68;;;;;;;;;;5028756;28;20030;-73
2021/03/30 02:31:59;;;;;;;;;;;;;;;;;;5029474;28;20021;-73
2021/03/30 02:34:28;;;;;;;15.95;7.47;;;;;;;;;;5026966;28;20281;-73
2021/03/30 02:36:57;;;;;;;14.63;7.80;;;;;;;;;;5027528;28;20026;-73
2021/03/30 02:39:24;;;;;;;18.08;8.13;;;;;;;;;;5027239;28;20022;-73
2021/03/30 02:41:50;;;;;;;15.13;8.07;;;;;;;;;;5028584;28;20024;-73
2021/03/30 02:44:17;;;;;;;20.45;8.40;;;;;;;;;;5028356;28;20032;-73
2021/03/30 02:46:44;;;;;;;15.82;8.18;;;;;;;;;;5027802;28;20041;-73
2021/03/30 02:49:12;;;;;;;21.30;9.38;;;;;;;;;;5028249;28;20101;-73
2021/03/30 02:51:39;;;;;;;18.65;9.15;;;;;;;;;;5029487;28;20029;-72
2021/03/30 02:54:07;;;;;;;20.13;9.40;;;;;;;;;;5045046;28;20584;-73
2021/03/30 02:56:33;;;;;;;22.65;9.13;;;;;;;;;;5027263;28;20056;-73
2021/03/30 02:58:59;;;;;;;16.40;8.57;;;;;;;;;;5027978;28;20045;-73
2021/03/30 03:01:25;;;;;;;14.63;8.73;;;;;;;;;;5028468;28;20026;-73
2021/03/30 03:03:52;;;;;;;15.70;9.07;;;;;;;;;;5026607;28;20029;-73
2021/03/30 03:06:19;;;;;;;16.67;9.43;;;;;;;;;;5028281;28;20399;-73
2021/03/30 03:08:46;;;;;;;15.80;8.90;;;;;;;;;;5028106;28;20136;-73
2021/03/30 03:11:13;;;;;;;18.10;8.68;;;;;;;;;;5027940;28;20065;-75
2021/03/30 03:13:39;;;;;;;14.93;8.20;;;;;;;;;;5027956;28;20022;-73
2021/03/30 03:16:06;;;;;;;19.70;8.35;;;;;;;;;;5024271;28;20025;-73
2021/03/30 03:18:34;;;;;;;20.45;9.05;;;;;;;;;;5027610;28;20103;-73
2021/03/30 03:21:00;;;;;;;19.63;8.52;;;;;;;;;;5027451;28;20460;-73
2021/03/30 03:23:27;;;;;;;15.95;9.55;;;;;;;;;;5022621;28;20080;-72
2021/03/30 03:25:53;;;;;;;17.58;9.55;;;;;;;;;;5022489;28;20129;-73
2021/03/30 03:28:19;;;;;;;19.10;9.27;;;;;;;;;;5027492;28;20076;-73
2021/03/30 03:30:45;;;;;;;16.50;8.90;;;;;;;;;;5026697;28;20433;-73
2021/03/30 03:33:12;;;;;;;19.80;9.60;;;;;;;;;;5025406;28;20061;-73
2021/03/30 03:35:38;;;;;;;16.45;9.10;;;;;;;;;;5027771;28;20032;-73
2021/03/30 03:38:05;;;;;;;19.70;10.13;;;;;;;;;;5027657;28;20519;-73
2021/03/30 03:40:32;;;;;;;19.50;9.93;;;;;;;;;;5028491;28;20025;-72
2021/03/30 03:42:58;;;;;;;18.58;10.07;;;;;;;;;;5026913;28;20017;-72
2021/03/30 03:45:24;;;;;;;19.98;9.82;;;;;;;;;;5026133;28;20026;-73
2021/03/30 03:47:50;;;;;;;19.48;11.15;;;;;;;;;;5028091;28;20033;-73
2021/03/30 03:50:16;;;;;;;20.58;10.68;;;;;;;;;;5029943;28;20034;-73
2021/03/30 03:52:46;;;;;;;17.13;9.57;;;;;;;;;;5031660;28;20028;-73
2021/03/30 03:55:13;;;;;;;17.70;8.80;;;;;;;;;;5031060;28;20099;-73
2021/03/30 03:57:45;;;;;;;19.00;10.43;;;;;;;;;;5029426;28;20030;-73
2021/03/30 04:00:11;;;;;;;19.63;10.27;;;;;;;;;;5031423;28;20096;-73
2021/03/30 04:02:46;;;;;;;19.85;9.95;;;;;;;;;;5031341;28;20057;-73
2021/03/30 04:05:16;;;;;;;21.50;9.15;;;;;;;;;;5030683;28;20033;-73
2021/03/30 04:07:54;;;;;;;18.80;9.48;;;;;;;;;;5031422;28;20029;-73
2021/03/30 04:10:22;;;;;;;16.95;10.15;;;;;;;;;;5029534;28;20486;-73
2021/03/30 04:12:48;;;;;;;20.70;8.90;;;;;;;;;;5030264;28;20080;-73
2021/03/30 04:15:14;;;;;;;19.05;11.07;;;;;;;;;;5029921;28;20442;-73
2021/03/30 04:17:41;;;;;;;19.75;10.63;;;;;;;;;;5031216;28;20083;-73
2021/03/30 04:20:11;;;;;;;17.42;8.77;;;;;;;;;;5031220;28;20047;-73
2021/03/30 04:22:38;;;;;;;16.75;9.30;;;;;;;;;;5031217;28;20029;-73
2021/03/30 04:25:05;;;;;;;20.05;10.10;;;;;;;;;;5030929;28;20382;-73
2021/03/30 04:27:32;;;;;;;19.85;9.70;;;;;;;;;;5030684;28;20045;-73
2021/03/30 04:29:58;;;;;;;19.80;10.45;;;;;;;;;;5030768;28;20109;-73
2021/03/30 04:32:24;;;;;;;17.17;9.15;;;;;;;;;;5031044;28;20029;-73
2021/03/30 04:34:50;;;;;;;23.67;10.95;;;;;;;;;;5028866;28;20072;-73
2021/03/30 04:37:16;;;;;;;30.00;12.98;;;;;;;;;;5029157;28;20022;-73
2021/03/30 04:39:42;;;;;;;28.27;11.55;;;;;;;;;;5027158;28;20445;-73
2021/03/30 04:42:08;;;;;;;20.30;9.88;;;;;;;;;;5028671;28;20645;-73
2021/03/30 04:44:34;;;;;;;26.55;10.23;;;;;;;;;;5030641;28;20030;-73
2021/03/30 04:47:00;;;;;;;29.13;13.02;;;;;;;;;;5027528;28;20124;-73
2021/03/30 04:49:26;;;;;;;19.88;10.10;;;;;;;;;;5030545;28;20026;-72
2021/03/30 04:51:52;;;;;;;36.85;12.38;;;;;;;;;;5029513;28;20496;-73
2021/03/30 04:54:18;;;;;;;32.47;12.70;;;;;;;;;;5030141;28;20032;-73
2021/03/30 04:56:44;;;;;;;28.00;12.27;;;;;;;;;;5030808;28;20428;-73
2021/03/30 04:59:10;;;;;;;30.50;12.98;;;;;;;;;;5028942;28;20421;-73
2021/03/30 05:01:36;;;;;;;35.58;13.00;;;;;;;;;;5023696;28;20055;-73
2021/03/30 05:04:02;;;;;;;32.13;13.40;;;;;;;;;;5030007;28;20041;-73
2021/03/30 05:06:28;;;;;;;33.67;13.90;;;;;;;;;;5028917;28;20057;-73
2021/03/30 05:08:54;;;;;;;27.73;13.63;;;;;;;;;;5022987;28;20064;-73
2021/03/30 05:11:20;;;;;;;31.60;12.90;;;;;;;;;;5029006;28;20052;-73
2021/03/30 05:13:46;;;;;;;30.83;12.40;;;;;;;;;;5030359;28;20083;-73
2021/03/30 05:16:12;;;;;;;27.50;11.82;;;;;;;;;;5029751;28;20029;-73
2021/03/30 05:18:38;;;;;;;23.65;11.02;;;;;;;;;;5026614;28;20033;-73
2021/03/30 05:21:04;;;;;;;22.95;10.48;;;;;;;;;;5030145;28;20031;-73
2021/03/30 05:23:30;;;;;;;26.63;11.10;;;;;;;;;;5028104;28;20057;-73
2021/03/30 05:25:56;;;;;;;25.98;10.50;;;;;;;;;;5030323;28;20064;-73
2021/03/30 05:28:22;;;;;;;23.02;9.75;;;;;;;;;;5020778;28;20040;-73
2021/03/30 05:30:48;;;;;;;21.80;10.77;;;;;;;;;;5028288;28;20034;-73
2021/03/30 05:33:14;;;;;;;20.67;11.75;;;;;;;;;;5029596;28;20029;-73
2021/03/30 05:35:40;;;;;;;21.10;9.63;;;;;;;;;;5029028;28;20128;-73
2021/03/30 05:38:06;;;;;;;23.33;9.38;;;;;;;;;;5029200;28;20505;-73
2021/03/30 05:40:31;;;;;;;27.55;10.30;;;;;;;;;;5030066;28;20021;-73
2021/03/30 05:42:58;;;;;;;23.38;9.70;;;;;;;;;;5027993;28;20494;-73
2021/03/30 05:45:24;;;;;;;20.35;9.70;;;;;;;;;;5028053;28;20070;-73
2021/03/30 05:47:51;;;;;;;20.88;9.50;;;;;;;;;;5028606;28;20112;-73
2021/03/30 05:50:18;;;;;;;23.38;9.75;;;;;;;;;;5029281;28;20030;-73
2021/03/30 05:52:52;;;;;;;20.85;9.75;;;;;;;;;;5026026;28;20057;-73
2021/03/30 05:55:24;;;;;;;24.83;10.35;;;;;;;;;;5029187;28;20025;-73
2021/03/30 05:57:51;;;;;;;18.73;8.48;;;;;;;;;;5029931;28;20048;-73
2021/03/30 06:00:19;;;;;;;15.30;8.93;;;;;;;;;;5029134;28;20021;-73
2021/03/30 06:02:47;;;;;;;18.25;8.07;;;;;;;;;;5028995;28;20061;-73
2021/03/30 06:05:14;;;;;;;17.70;8.90;;;;;;;;;;5028397;28;20021;-73
2021/03/30 06:07:40;;;;;;;17.17;8.15;;;;;;;;;;5028847;28;20064;-73
2021/03/30 06:10:12;;;;;;;14.82;8.15;;;;;;;;;;5027713;28;20123;-73
2021/03/30 06:12:38;;;;;;;13.57;7.63;;;;;;;;;;5025519;28;20390;-73
2021/03/30 06:15:05;;;;;;;15.57;7.45;;;;;;;;;;5029063;28;20108;-74
2021/03/30 06:17:47;;;;;;;14.73;8.13;;;;;;;;;;5026607;28;20053;-74
2021/03/30 06:20:25;;;;;;;16.85;7.50;;;;;;;;;;5029114;28;20433;-73
2021/03/30 06:22:52;;;;;;;14.90;7.78;;;;;;;;;;5027055;28;20117;-74
2021/03/30 06:25:34;;;;;;;16.25;7.93;;;;;;;;;;5022102;28;20029;-73
2021/03/30 06:28:13;;;;;;;15.57;7.28;;;;;;;;;;5021450;28;20013;-73
2021/03/30 06:30:40;;;;;;;14.02;8.45;;;;;;;;;;5024360;28;20097;-73
2021/03/30 06:33:07;;;;;;;18.08;8.13;;;;;;;;;;5028099;28;20453;-74
2021/03/30 06:35:33;;;;;;;19.60;9.30;;;;;;;;;;5028203;28;20123;-74
2021/03/30 06:37:59;;;;;;;24.50;8.18;;;;;;;;;;5026213;28;20030;-74
2021/03/30 06:40:29;;;;;;;20.08;7.93;;;;;;;;;;5027820;28;20108;-74
2021/03/30 06:43:11;;;;;;;17.52;8.50;;;;;;;;;;5025589;28;20022;-74
2021/03/30 06:45:37;;;;;;;18.92;9.50;;;;;;;;;;5023942;28;20018;-74
2021/03/30 06:48:04;;;;;;;15.38;8.20;;;;;;;;;;5026174;28;20049;-74
2021/03/30 06:50:34;;;;;;;16.65;8.27;;;;;;;;;;5028673;28;20040;-74
2021/03/30 06:53:18;;;;;;;15.68;8.27;;;;;;;;;;5025657;28;20028;-74
2021/03/30 06:55:56;;;;;;;20.55;8.50;;;;;;;;;;5024591;28;20079;-76
2021/03/30 06:58:22;;;;;;;18.05;8.48;;;;;;;;;;5022796;28;20029;-72
2021/03/30 07:00:48;;;;;;;16.35;8.13;;;;;;;;;;5025192;28;20498;-72
2021/03/30 07:03:19;;;;;;;16.75;8.23;;;;;;;;;;5023328;28;20029;-73
2021/03/30 07:05:46;;;;;;;19.27;8.82;;;;;;;;;;5023687;28;20033;-73
2021/03/30 07:08:22;;;;;;;17.40;7.70;;;;;;;;;;5026801;28;20641;-71
2021/03/30 07:10:49;;;;;;;17.08;8.45;;;;;;;;;;5026710;28;20029;-72
2021/03/30 07:13:16;;;;;;;17.38;8.25;;;;;;;;;;5022114;28;20034;-72
2021/03/30 07:15:42;;;;;;;18.05;9.45;;;;;;;;;;5026904;28;20743;-72
2021/03/30 07:18:27;;;;;;;13.75;8.40;;;;;;;;;;5025359;28;20033;-71
2021/03/30 07:20:56;;;;;;;21.10;9.18;;;;;;;;;;5026120;28;20084;-72
2021/03/30 07:23:23;;;;;;;17.15;9.13;;;;;;;;;;5039268;28;20036;-71
2021/03/30 07:25:51;;;;;;;17.58;8.90;;;;;;;;;;5026564;28;20053;-71
2021/03/30 07:28:18;;;;;;;17.67;8.80;;;;;;;;;;5025993;28;20040;-71
2021/03/30 07:30:46;;;;;;;22.98;9.40;;;;;;;;;;5024002;28;20095;-71
2021/03/30 07:33:27;;;;;;;23.38;10.55;;;;;;;;;;5024263;28;20540;-72
2021/03/30 07:35:55;;;;;;;21.15;9.45;;;;;;;;;;5026855;28;20025;-72
2021/03/30 07:38:24;;;;;;;24.13;9.55;;;;;;;;;;5027156;28;20018;-72
2021/03/30 07:40:50;;;;;;;22.23;9.65;;;;;;;;;;5026808;28;20018;-72
2021/03/30 07:43:26;;;;;;;20.38;7.97;;;;;;;;;;5025132;28;20121;-72
2021/03/30 07:45:53;;;;;;;21.60;8.80;;;;;;;;;;5027143;28;20451;-72
2021/03/30 07:48:20;;;;;;;23.33;9.32;;;;;;;;;;5026010;28;20075;-71
2021/03/30 07:50:54;;;;;;;22.40;11.05;;;;;;;;;;5022577;28;20053;-70
2021/03/30 07:53:38;;;;;;;15.90;7.95;;;;;;;;;;5026614;28;20525;-71
2021/03/30 07:56:05;;;;;;;21.13;8.98;;;;;;;;;;5027093;28;20044;-70
2021/03/30 07:58:38;;;;;;;18.50;8.65;;;;;;;;;;5023362;28;20090;-70
2021/03/30 08:01:05;;;;;;;16.52;8.75;;;;;;;;;;5025760;28;20433;-70
2021/03/30 08:03:33;;;;;;;17.23;8.80;;;;;;;;;;5026019;28;20029;-71
2021/03/30 08:06:18;;;;;;;16.95;8.50;;;;;;;;;;5026909;28;20028;-71
2021/03/30 08:08:47;;;;;;;16.85;9.98;;;;;;;;;;5020754;28;20048;-71
2021/03/30 08:11:13;;;;;;;;;;;;;;;;;;5025344;28;20059;-70
2021/03/30 08:13:53;;;;;;;18.75;8.63;;;;;;;;;;5021578;28;19928;-70
2021/03/30 08:16:20;;;;;;;18.92;7.78;;;;;;;;;;5022632;28;20549;-70
2021/03/30 08:18:47;;;;;;;14.40;9.05;;;;;;;;;;5025973;28;20029;-70
2021/03/30 08:21:14;;;;;;;14.48;8.55;;;;;;;;;;5025301;28;20021;-70
2021/03/30 08:23:52;;;;;;;14.85;8.77;;;;;;;;;;5026373;28;20033;-70
2021/03/30 08:26:21;;;;;;;15.35;8.13;;;;;;;;;;5025502;28;20504;-70
2021/03/30 08:29:01;;;;;;;13.45;7.30;;;;;;;;;;5024440;28;20505;-70
2021/03/30 08:31:28;;;;;;;16.23;8.27;;;;;;;;;;5023854;28;20505;-70
2021/03/30 08:33:56;;;;;;;15.63;7.97;;;;;;;;;;5025360;28;20030;-71
2021/03/30 08:36:24;;;;;;;12.13;7.72;;;;;;;;;;5028606;28;20044;-70
2021/03/30 08:38:51;;;;;;;13.35;8.27;;;;;;;;;;5026844;28;20179;-70
2021/03/30 08:41:47;;;;;;;17.95;8.70;;;;;;;;;;5028341;28;20116;-70
2021/03/30 08:44:19;;;;;;;14.48;7.13;;;;;;;;;;5020007;28;20072;-71
2021/03/30 08:46:47;;;;;;;11.77;6.82;;;;;;;;;;5029441;28;20064;-70
2021/03/30 08:49:23;;;;;;;7.88;6.25;;;;;;;;;;5029547;28;20018;-71
2021/03/30 08:51:50;;;;;;;12.43;6.72;;;;;;;;;;5029672;28;20096;-70
2021/03/30 08:54:17;;;;;;;11.38;7.05;;;;;;;;;;5026471;28;20477;-70
2021/03/30 08:56:43;;;;;;;11.45;6.45;;;;;;;;;;5016986;28;20030;-70
2021/03/30 08:59:10;;;;;;;9.07;6.35;;;;;;;;;;5008488;28;20026;-69
2021/03/30 09:01:37;;;;;;;11.25;6.18;;;;;;;;;;5008544;28;20022;-70
2021/03/30 09:04:03;;;;;;;13.70;7.28;;;;;;;;;;5005119;28;20155;-70
2021/03/30 09:06:41;;;;;;;12.73;8.23;;;;;;;;;;5002620;28;20064;-69
2021/03/30 09:09:20;;;;;;;15.07;7.72;;;;;;;;;;5005234;28;20437;-69
2021/03/30 09:11:47;;;;;;;14.13;8.73;;;;;;;;;;5005869;28;20045;-69
2021/03/30 09:14:16;;;;;;;15.63;7.50;;;;;;;;;;4995485;28;20026;-70
2021/03/30 09:16:44;;;;;;;14.90;8.45;;;;;;;;;;5007758;28;20030;-69
2021/03/30 09:19:34;;;;;;;16.02;8.35;;;;;;;;;;5002211;28;20037;-70
2021/03/30 09:22:06;;;;;;;11.02;7.75;;;;;;;;;;4996830;28;20068;-70
2021/03/30 09:26:58;;;;;;;12.65;7.78;;;;;;;;;;4999375;28;20048;-69
2021/03/30 09:29:24;;;;;;;13.05;7.40;;;;;;;;;;4996164;28;20447;-70
2021/03/30 09:31:50;;;;;;;14.20;7.90;;;;;;;;;;5009751;28;20029;-69
2021/03/30 09:34:16;;;;;;;14.02;8.57;;;;;;;;;;5004968;28;20026;-70
2021/03/30 09:36:48;;;;;;;15.85;8.10;;;;;;;;;;5006145;28;20668;-70
2021/03/30 09:39:21;;;;;;;12.13;8.05;;;;;;;;;;5016439;28;20061;-70
2021/03/30 09:41:48;;;;;;;12.38;8.35;;;;;;;;;;5008570;28;20721;-70
2021/03/30 09:44:15;;;;;;;11.60;7.65;;;;;;;;;;5002834;28;20072;-70
2021/03/30 09:46:41;;;;;;;12.18;7.88;;;;;;;;;;5007480;28;20018;-69
2021/03/30 09:49:08;;;;;;;12.13;7.63;;;;;;;;;;5006995;28;20137;-69
2021/03/30 09:51:36;;;;;;;17.95;8.48;;;;;;;;;;5019088;28;20483;-68
2021/03/30 09:54:01;;;;;;;14.77;8.32;;;;;;;;;;5003793;28;20481;-68
2021/03/30 09:56:29;;;;;;;14.20;7.20;;;;;;;;;;5007931;28;20114;-68
2021/03/30 09:58:59;;;;;;;10.40;6.97;;;;;;;;;;5002123;28;20030;-70
2021/03/30 10:01:25;;;;;;;10.20;6.20;;;;;;;;;;5003875;28;20105;-69
2021/03/30 10:03:51;;;;;;;9.90;6.10;;;;;;;;;;5003364;28;20478;-69
2021/03/30 10:06:21;;;;;;;14.88;7.85;;;;;;;;;;5006059;28;20079;-69
2021/03/30 10:08:47;;;;;;;;;;;;;;;;;;5005584;28;20075;-69
2021/03/30 10:11:13;;;;;;;11.10;6.47;;;;;;;;;;5005485;28;19909;-69
2021/03/30 10:13:40;;;;;;;12.45;6.05;;;;;;;;;;5005414;28;20482;-69
2021/03/30 10:16:07;;;;;;;13.98;6.38;;;;;;;;;;5005403;28;20018;-70
2021/03/30 10:18:34;;;;;;;10.00;5.60;;;;;;;;;;5004414;28;20026;-70
2021/03/30 10:21:01;;;;;;;7.90;5.13;;;;;;;;;;5004732;28;20025;-69
2021/03/30 10:23:31;;;;;;;12.20;6.38;;;;;;;;;;5006260;28;20033;-70
2021/03/30 10:25:57;;;;;;;11.00;7.35;;;;;;;;;;5006245;28;20025;-70
2021/03/30 10:28:24;;;;;;;12.07;6.75;;;;;;;;;;5006437;28;20033;-70
2021/03/30 10:30:53;;;;;;;14.65;8.00;;;;;;;;;;5006278;28;20105;-70
2021/03/30 10:33:38;;;;;;;11.20;7.15;;;;;;;;;;5004535;28;20030;-70
2021/03/30 10:36:04;;;;;;;12.20;7.43;;;;;;;;;;5005251;28;20467;-69
2021/03/30 10:38:30;;;;;;;14.55;8.63;;;;;;;;;;5005970;28;20038;-69
2021/03/30 10:41:03;;;;;;;14.13;8.93;;;;;;;;;;5005337;28;20065;-69
2021/03/30 10:43:29;;;;;;;15.88;9.55;;;;;;;;;;5004653;28;20028;-69
2021/03/30 10:45:55;;;;;;;15.73;9.63;;;;;;;;;;5002866;28;20108;-68
2021/03/30 10:48:21;;;;;;;25.15;11.80;;;;;;;;;;5003442;28;20041;-68
2021/03/30 10:50:48;;;;;;;16.65;10.27;;;;;;;;;;4999467;28;20034;-69
2021/03/30 10:53:14;;;;;;;15.95;10.52;;;;;;;;;;5001065;28;20049;-69
2021/03/30 10:55:42;;;;;;;20.65;11.85;;;;;;;;;;5004775;28;20065;-69
2021/03/30 10:58:09;;;;;;;19.27;11.55;;;;;;;;;;5006063;28;20072;-69
2021/03/30 11:00:35;;;;;;;20.05;11.45;;;;;;;;;;5007268;28;20024;-68
2021/03/30 11:03:01;;;;;;;19.17;11.65;;;;;;;;;;5005896;28;20091;-68
2021/03/30 11:05:28;;;;;;;14.52;10.38;;;;;;;;;;5006648;28;20233;-68
2021/03/30 11:07:54;;;;;;;23.48;12.82;;;;;;;;;;5007112;28;20503;-68
2021/03/30 11:10:22;;;;;;;22.70;12.15;;;;;;;;;;5006692;28;20022;-68
2021/03/30 11:12:48;;;;;;;19.25;11.35;;;;;;;;;;5006291;28;20018;-69
2021/03/30 11:15:15;;;;;;;21.13;12.10;;;;;;;;;;5001014;28;20040;-69
2021/03/30 11:17:40;;;;;;;23.05;12.38;;;;;;;;;;5002112;28;20029;-69
2021/03/30 11:20:08;;;;;;;17.25;11.15;;;;;;;;;;5004497;28;20040;-69
2021/03/30 11:22:34;;;;;;;20.50;12.25;;;;;;;;;;5003417;28;20026;-70
2021/03/30 11:25:01;;;;;;;18.75;11.63;;;;;;;;;;5001912;28;20538;-68
2021/03/30 11:27:30;;;;;;;21.30;12.25;;;;;;;;;;5003808;28;20025;-71
2021/03/30 11:32:45;;;;;;;22.73;13.75;;;;;;;;;;5001308;28;20117;-70
2021/03/30 11:35:17;;;;;;;22.17;12.07;;;;;;;;;;5000106;28;20022;-69
2021/03/30 11:37:51;;;;;;;21.40;13.30;;;;;;;;;;5002513;28;20018;-70
2021/03/30 11:40:18;;;;;;;22.17;13.27;;;;;;;;;;5002394;28;20018;-70
2021/03/30 11:42:44;;;;;;;18.23;10.77;;;;;;;;;;5003257;28;20083;-70
2021/03/30 11:45:10;;;;;;;24.83;11.68;;;;;;;;;;5002399;28;20030;-69
2021/03/30 11:47:36;;;;;;;19.40;12.50;;;;;;;;;;5000522;28;20029;-69
2021/03/30 11:50:05;;;;;;;21.08;11.80;;;;;;;;;;5001436;28;20087;-69
2021/03/30 11:52:31;;;;;;;18.77;12.00;;;;;;;;;;5003722;28;20076;-69
2021/03/30 11:54:57;;;;;;;19.50;11.23;;;;;;;;;;5002938;28;20091;-69
2021/03/30 11:57:23;;;;;;;19.48;10.75;;;;;;;;;;5003047;28;20029;-69
2021/03/30 11:59:50;;;;;;;21.85;12.98;;;;;;;;;;5002923;28;20018;-70
2021/03/30 12:02:16;;;;;;;22.88;12.30;;;;;;;;;;5002561;28;20014;-70
2021/03/30 12:04:42;;;;;;;24.10;14.32;;;;;;;;;;5002887;28;20395;-69
2021/03/30 12:07:08;;;;;;;22.33;13.63;;;;;;;;;;5001266;28;20066;-69
2021/03/30 12:09:34;;;;;;;24.48;13.75;;;;;;;;;;5004643;28;20047;-69
2021/03/30 12:12:00;;;;;;;22.60;14.50;;;;;;;;;;5006373;28;20029;-69
2021/03/30 12:14:26;;;;;;;24.23;14.32;;;;;;;;;;5006792;28;20026;-69
2021/03/30 12:16:52;;;;;;;25.40;13.88;;;;;;;;;;5006426;28;20056;-70
2021/03/30 12:19:19;;;;;;;23.40;13.38;;;;;;;;;;5006300;28;20026;-69
2021/03/30 12:21:45;;;;;;;25.23;13.60;;;;;;;;;;5006309;28;20018;-69
2021/03/30 12:24:11;;;;;;;22.77;13.50;;;;;;;;;;5007124;28;20026;-69
2021/03/30 12:26:37;;;;;;;32.35;15.52;;;;;;;;;;5006911;28;20537;-69
2021/03/30 12:29:03;;;;;;;23.63;13.75;;;;;;;;;;5006383;28;20041;-70
2021/03/30 12:31:30;;;;;;;24.75;14.48;;;;;;;;;;5009903;28;20045;-69
2021/03/30 12:33:57;;;;;;;18.77;11.65;;;;;;;;;;5004686;28;20410;-69
2021/03/30 12:36:23;;;;;;;28.27;15.98;;;;;;;;;;5005282;28;20033;-69
2021/03/30 12:38:49;;;;;;;25.05;14.63;;;;;;;;;;5003336;28;20026;-69
2021/03/30 12:41:15;;;;;;;22.38;12.98;;;;;;;;;;5007345;28;20522;-70
2021/03/30 12:43:41;;;;;;;23.30;12.60;;;;;;;;;;5000095;28;20026;-70
2021/03/30 12:46:07;;;;;;;21.13;11.82;;;;;;;;;;5008027;28;20113;-70
2021/03/30 12:48:33;;;;;;;22.98;12.65;;;;;;;;;;5008224;28;20215;-70
2021/03/30 12:50:59;;;;;;;22.95;12.07;;;;;;;;;;5004838;28;20041;-70
2021/03/30 12:53:25;;;;;;;26.90;13.65;;;;;;;;;;5005903;28;20042;-70
2021/03/30 12:55:51;;;;;;;33.63;12.02;;;;;;;;;;5005836;28;20018;-70
2021/03/30 12:58:17;;;;;;;23.55;12.90;;;;;;;;;;5006690;28;20026;-69
2021/03/30 13:00:43;;;;;;;21.88;12.90;;;;;;;;;;5008418;28;20026;-69
2021/03/30 13:03:09;;;;;;;27.58;13.93;;;;;;;;;;5008450;28;20105;-70
2021/03/30 13:05:35;;;;;;;32.25;12.90;;;;;;;;;;5008040;28;20026;-70
2021/03/30 13:08:01;;;;;;;23.25;13.60;;;;;;;;;;5005913;28;20026;-70
2021/03/30 13:10:27;;;;;;;23.38;14.77;;;;;;;;;;5008074;28;20026;-69
2021/03/30 13:12:53;;;;;;;26.83;14.27;;;;;;;;;;5005203;28;20018;-70
2021/03/30 13:15:19;;;;;;;27.90;13.93;;;;;;;;;;5008207;28;20026;-70
2021/03/30 13:17:45;;;;;;;25.52;14.65;;;;;;;;;;5006861;28;20093;-69
2021/03/30 13:20:11;;;;;;;32.35;16.90;;;;;;;;;;5006866;28;20101;-69
2021/03/30 13:22:37;;;;;;;29.80;17.00;;;;;;;;;;5006693;28;20500;-70
2021/03/30 13:25:04;;;;;;;26.48;15.13;;;;;;;;;;5004948;28;20392;-69
2021/03/30 13:27:30;;;;;;;29.20;16.33;;;;;;;;;;4997666;28;20041;-68
2021/03/30 13:29:56;;;;;;;28.20;16.05;;;;;;;;;;5005983;28;20032;-69
2021/03/30 13:32:22;;;;;;;26.63;15.57;;;;;;;;;;4990525;28;20047;-69
2021/03/30 13:34:48;;;;;;;26.30;14.55;;;;;;;;;;5002622;28;20033;-69
2021/03/30 13:37:15;;;;;;;28.83;16.73;;;;;;;;;;5005329;28;20494;-69
2021/03/30 13:39:42;;;;;;;31.33;15.25;;;;;;;;;;5002559;28;20365;-69
2021/03/30 13:42:09;;;;;;;30.08;14.55;;;;;;;;;;5005413;28;20027;-69
2021/03/30 13:44:35;;;;;;;27.58;14.68;;;;;;;;;;4989712;28;20089;-69
2021/03/30 13:47:02;;;;;;;27.80;15.27;;;;;;;;;;5006667;28;20037;-69
2021/03/30 13:49:34;;;;;;;30.00;16.52;;;;;;;;;;5007430;28;20026;-69
2021/03/30 13:52:00;;;;;;;26.80;15.77;;;;;;;;;;5004222;28;20018;-69
2021/03/30 13:54:26;;;;;;;28.33;16.17;;;;;;;;;;5006447;28;20030;-69
2021/03/30 13:56:53;;;;;;;28.52;15.18;;;;;;;;;;5006776;28;20040;-69
2021/03/30 13:59:19;;;;;;;28.13;16.45;;;;;;;;;;5004162;28;20022;-68
2021/03/30 14:01:47;;;;;;;28.20;15.57;;;;;;;;;;5006436;28;20374;-69
2021/03/30 14:04:13;;;;;;;30.55;15.80;;;;;;;;;;5006542;28;20018;-69
2021/03/30 14:06:39;;;;;;;31.75;16.30;;;;;;;;;;5004783;28;20030;-70
2021/03/30 14:09:06;;;;;;;30.35;15.63;;;;;;;;;;5004283;28;20026;-69
2021/03/30 14:11:34;;;;;;;29.25;16.02;;;;;;;;;;5006168;28;20363;-69
2021/03/30 14:14:07;;;;;;;30.10;16.45;;;;;;;;;;5005024;28;20029;-69
2021/03/30 14:16:40;;;;;;;32.35;17.35;;;;;;;;;;5006278;28;20072;-69
2021/03/30 14:19:14;;;;;;;28.92;15.52;;;;;;;;;;5004659;28;20105;-69
2021/03/30 14:21:47;;;;;;;33.90;17.20;;;;;;;;;;5006959;28;20503;-69
2021/03/30 14:24:41;;;;;;;29.65;16.40;;;;;;;;;;5005385;28;20076;-69
2021/03/30 14:27:07;;;;;;;33.92;17.88;;;;;;;;;;5003037;28;20652;-69
2021/03/30 14:29:44;;;;;;;36.42;17.75;;;;;;;;;;5005002;28;20021;-69
2021/03/30 14:32:10;;;;;;;31.75;17.77;;;;;;;;;;5003818;28;20026;-69
2021/03/30 14:34:36;;;;;;;34.08;17.80;;;;;;;;;;4999590;28;21114;-69
2021/03/30 14:37:02;;;;;;;32.75;18.02;;;;;;;;;;5003732;28;20029;-69
2021/03/30 14:39:28;;;;;;;32.30;18.17;;;;;;;;;;5005473;28;20026;-69
2021/03/30 14:42:01;;;;;;;32.83;17.52;;;;;;;;;;5002062;28;20068;-68